Aviation Discussion

KDTW 210530Z 2106/2212 24010KT P6SM BKN050 BKN080
FM211000 22009KT P6SM SCT060 BKN090
FM211400 24016G26KT P6SM BKN080
FM211600 24022G32KT P6SM SCT050 BKN070 PROB30 2117/2121
25024G38KT 6SM SHRA BKN040 OVC060
FM220000 22014KT P6SM BKN060=

KDET 210530Z 2106/2206 24010KT P6SM BKN050 BKN080
FM211000 22009KT P6SM SCT060 BKN090
FM211400 24016G26KT P6SM BKN080
FM211600 24022G32KT P6SM SCT050 BKN070 PROB30 2117/2121
25024G38KT 6SM SHRA BKN040 OVC060
FM220000 22014KT P6SM BKN060=

Cleveland Center Weather Service Unit (CWSU)
Mission:
Our main responsibility is to provide up to the minute weather information to FAA Supervisors and the ZOB Traffic Management Unit (TMU). Some of the products issued by the CWSU are the Center Weather Advisories (CWA) and the Meteorological Impact Statement (MIS). The CWA is an aviation weather warning for thunderstorms, severe icing or turbulence, and low IFR ceilings and visibility. The MIS is a 2-12 hour forecast for weather conditions, which are expected to impact ARTCC operations.
 
Operations:
The Cleveland Center Weather Service Unit (ZOB CWSU) is located at the Federal Aviation Administration (FAA) Air Route Traffic Control Center (ARTCC) in Oberlin, OH. Four National Weather Service meteorologists staff the office. Our hours of operation are from 6:00 A.M. to 9:30 P.M. daily.

Web Site Owner:
NOAA National Weather Service
Cleveland ARTCC Attn:CWSU
326 East Lorain Street
Oberlin, OH 44074
Web Administrator:Webmaster
Page last modified: 23 Feb 2013
Disclaimer
Credits
Glossary
Privacy Policy
About Our Organization
Career Opportunities